sensor_id;sensor_type;location;lat;lon;timestamp;pressure;altitude;pressure_sealevel;temperature;humidity
9822;BME280;4950;46.042;14.472;2023-11-21T00:02:24;97395.75;;;9.33;90.13
9822;BME280;4950;46.042;14.472;2023-11-21T00:04:54;97388.34;;;9.29;90.42
9822;BME280;4950;46.042;14.472;2023-11-21T00:07:20;97389.94;;;9.31;90.34
9822;BME280;4950;46.042;14.472;2023-11-21T00:09:48;97389.66;;;9.25;90.23
9822;BME280;4950;46.042;14.472;2023-11-21T00:12:18;97394.44;;;9.22;91.09
9822;BME280;4950;46.042;14.472;2023-11-21T00:14:46;97392.63;;;9.22;90.42
9822;BME280;4950;46.042;14.472;2023-11-21T00:17:12;97400.41;;;9.22;91.21
9822;BME280;4950;46.042;14.472;2023-11-21T00:19:39;97397.19;;;9.20;91.11
9822;BME280;4950;46.042;14.472;2023-11-21T00:22:09;97399.50;;;9.15;91.34
9822;BME280;4950;46.042;14.472;2023-11-21T00:24:36;97402.25;;;8.99;91.77
9822;BME280;4950;46.042;14.472;2023-11-21T00:27:03;97403.66;;;9.01;92.85
9822;BME280;4950;46.042;14.472;2023-11-21T00:29:31;97395.81;;;9.09;92.09
9822;BME280;4950;46.042;14.472;2023-11-21T00:31:58;97387.34;;;9.16;91.13
9822;BME280;4950;46.042;14.472;2023-11-21T00:34:24;97389.13;;;9.15;91.34
9822;BME280;4950;46.042;14.472;2023-11-21T00:36:51;97378.44;;;9.18;91.76
9822;BME280;4950;46.042;14.472;2023-11-21T00:39:19;97371.72;;;9.09;91.83
9822;BME280;4950;46.042;14.472;2023-11-21T00:41:46;97377.25;;;9.06;92.51
9822;BME280;4950;46.042;14.472;2023-11-21T00:44:13;97381.09;;;9.10;92.25
9822;BME280;4950;46.042;14.472;2023-11-21T00:46:41;97380.19;;;9.18;91.97
9822;BME280;4950;46.042;14.472;2023-11-21T00:49:08;97386.66;;;9.22;92.57
9822;BME280;4950;46.042;14.472;2023-11-21T00:51:34;97388.63;;;9.20;92.33
9822;BME280;4950;46.042;14.472;2023-11-21T00:54:01;97380.03;;;9.19;91.55
9822;BME280;4950;46.042;14.472;2023-11-21T00:56:29;97369.41;;;9.14;91.76
9822;BME280;4950;46.042;14.472;2023-11-21T00:58:57;97370.22;;;9.15;91.91
9822;BME280;4950;46.042;14.472;2023-11-21T01:01:23;97388.94;;;9.02;91.86
9822;BME280;4950;46.042;14.472;2023-11-21T01:03:50;97370.56;;;8.97;92.62
9822;BME280;4950;46.042;14.472;2023-11-21T01:06:17;97363.41;;;8.99;92.04
9822;BME280;4950;46.042;14.472;2023-11-21T01:08:45;97354.75;;;9.06;92.06
9822;BME280;4950;46.042;14.472;2023-11-21T01:11:12;97362.16;;;9.09;91.97
9822;BME280;4950;46.042;14.472;2023-11-21T01:13:40;97354.38;;;9.09;92.20
9822;BME280;4950;46.042;14.472;2023-11-21T01:16:08;97346.91;;;9.15;92.28
9822;BME280;4950;46.042;14.472;2023-11-21T01:18:35;97342.97;;;9.19;92.22
9822;BME280;4950;46.042;14.472;2023-11-21T01:21:01;97343.78;;;9.04;92.85
9822;BME280;4950;46.042;14.472;2023-11-21T01:23:28;97337.16;;;9.02;92.74
9822;BME280;4950;46.042;14.472;2023-11-21T01:25:56;97337.16;;;9.02;92.49
9822;BME280;4950;46.042;14.472;2023-11-21T01:28:23;97333.44;;;9.04;92.53
9822;BME280;4950;46.042;14.472;2023-11-21T01:30:51;97334.31;;;9.12;92.28
9822;BME280;4950;46.042;14.472;2023-11-21T01:33:18;97338.84;;;9.09;91.71
9822;BME280;4950;46.042;14.472;2023-11-21T01:35:45;97337.59;;;9.05;92.02
9822;BME280;4950;46.042;14.472;2023-11-21T01:38:12;97335.03;;;9.05;91.49
9822;BME280;4950;46.042;14.472;2023-11-21T01:40:39;97337.97;;;9.02;91.82
9822;BME280;4950;46.042;14.472;2023-11-21T01:43:06;97333.59;;;9.03;91.54
9822;BME280;4950;46.042;14.472;2023-11-21T01:45:33;97338.78;;;9.03;90.92
9822;BME280;4950;46.042;14.472;2023-11-21T01:48:02;97340.56;;;9.02;90.97
9822;BME280;4950;46.042;14.472;2023-11-21T01:50:32;97342.78;;;9.05;90.62
9822;BME280;4950;46.042;14.472;2023-11-21T01:52:59;97347.97;;;9.05;91.08
9822;BME280;4950;46.042;14.472;2023-11-21T01:55:27;97345.28;;;8.99;90.76
9822;BME280;4950;46.042;14.472;2023-11-21T01:57:56;97353.84;;;8.99;91.52
9822;BME280;4950;46.042;14.472;2023-11-21T02:00:23;97347.00;;;9.06;91.02
9822;BME280;4950;46.042;14.472;2023-11-21T02:02:51;97339.50;;;8.97;91.95
9822;BME280;4950;46.042;14.472;2023-11-21T02:05:19;97337.69;;;8.97;91.87
9822;BME280;4950;46.042;14.472;2023-11-21T02:07:47;97342.25;;;8.95;92.07
9822;BME280;4950;46.042;14.472;2023-11-21T02:10:14;97350.59;;;8.67;92.41
9822;BME280;4950;46.042;14.472;2023-11-21T02:12:41;97346.69;;;8.48;92.96
9822;BME280;4950;46.042;14.472;2023-11-21T02:15:10;97348.22;;;8.35;93.76
9822;BME280;4950;46.042;14.472;2023-11-21T02:17:40;97340.00;;;8.08;96.01
9822;BME280;4950;46.042;14.472;2023-11-21T02:20:09;97337.03;;;8.19;96.62
9822;BME280;4950;46.042;14.472;2023-11-21T02:22:42;97329.66;;;8.31;96.96
9822;BME280;4950;46.042;14.472;2023-11-21T02:25:10;97328.63;;;8.40;96.46
9822;BME280;4950;46.042;14.472;2023-11-21T02:27:37;97325.66;;;8.52;94.67
9822;BME280;4950;46.042;14.472;2023-11-21T02:30:05;97332.72;;;8.58;94.38
9822;BME280;4950;46.042;14.472;2023-11-21T02:32:33;97333.22;;;8.53;93.85
9822;BME280;4950;46.042;14.472;2023-11-21T02:34:59;97331.72;;;8.44;94.20
9822;BME280;4950;46.042;14.472;2023-11-21T02:37:28;97337.03;;;8.19;95.15
9822;BME280;4950;46.042;14.472;2023-11-21T02:39:55;97348.06;;;8.13;95.73
9822;BME280;4950;46.042;14.472;2023-11-21T02:42:23;97351.81;;;8.02;96.19
9822;BME280;4950;46.042;14.472;2023-11-21T02:44:50;97343.22;;;8.10;96.13
9822;BME280;4950;46.042;14.472;2023-11-21T02:47:17;97338.31;;;7.92;96.29
9822;BME280;4950;46.042;14.472;2023-11-21T02:49:43;97337.78;;;7.74;98.09
9822;BME280;4950;46.042;14.472;2023-11-21T02:52:10;97327.88;;;7.85;98.72
9822;BME280;4950;46.042;14.472;2023-11-21T02:54:37;97329.03;;;8.06;97.48
9822;BME280;4950;46.042;14.472;2023-11-21T02:57:04;97332.59;;;8.28;96.80
9822;BME280;4950;46.042;14.472;2023-11-21T02:59:32;97327.84;;;8.40;96.42
9822;BME280;4950;46.042;14.472;2023-11-21T03:01:59;97323.88;;;8.52;95.07
9822;BME280;4950;46.042;14.472;2023-11-21T03:04:25;97319.25;;;8.62;94.76
9822;BME280;4950;46.042;14.472;2023-11-21T03:06:52;97324.97;;;8.58;94.87
9822;BME280;4950;46.042;14.472;2023-11-21T03:09:19;97321.50;;;8.65;94.45
9822;BME280;4950;46.042;14.472;2023-11-21T03:11:45;97320.97;;;8.70;94.10
9822;BME280;4950;46.042;14.472;2023-11-21T03:14:12;97332.22;;;8.77;93.86
9822;BME280;4950;46.042;14.472;2023-11-21T03:16:40;97325.88;;;8.80;93.45
9822;BME280;4950;46.042;14.472;2023-11-21T03:19:07;97326.50;;;8.82;93.33
9822;BME280;4950;46.042;14.472;2023-11-21T03:21:34;97337.06;;;8.42;93.67
9822;BME280;4950;46.042;14.472;2023-11-21T03:24:01;97330.66;;;8.30;96.20
9822;BME280;4950;46.042;14.472;2023-11-21T03:26:28;97328.44;;;8.50;94.93
9822;BME280;4950;46.042;14.472;2023-11-21T03:28:55;97329.31;;;8.57;94.44
9822;BME280;4950;46.042;14.472;2023-11-21T03:31:21;97328.28;;;8.66;94.46
9822;BME280;4950;46.042;14.472;2023-11-21T03:33:49;97332.31;;;8.69;94.74
9822;BME280;4950;46.042;14.472;2023-11-21T03:36:18;97333.09;;;8.69;94.69
9822;BME280;4950;46.042;14.472;2023-11-21T03:38:44;97328.81;;;8.62;94.72
9822;BME280;4950;46.042;14.472;2023-11-21T03:41:11;97338.53;;;8.75;94.72
9822;BME280;4950;46.042;14.472;2023-11-21T03:43:38;97346.31;;;8.75;94.19
9822;BME280;4950;46.042;14.472;2023-11-21T03:46:05;97344.81;;;8.80;94.00
9822;BME280;4950;46.042;14.472;2023-11-21T03:48:32;97336.78;;;8.90;94.13
9822;BME280;4950;46.042;14.472;2023-11-21T03:51:00;97334.19;;;8.90;93.41
9822;BME280;4950;46.042;14.472;2023-11-21T03:53:27;97330.97;;;8.88;93.96
9822;BME280;4950;46.042;14.472;2023-11-21T03:55:54;97339.75;;;8.87;94.60
9822;BME280;4950;46.042;14.472;2023-11-21T03:58:21;97344.91;;;8.87;94.21
9822;BME280;4950;46.042;14.472;2023-11-21T04:00:48;97347.50;;;8.87;94.10
9822;BME280;4950;46.042;14.472;2023-11-21T04:03:15;97343.94;;;8.88;94.62
9822;BME280;4950;46.042;14.472;2023-11-21T04:05:42;97338.03;;;8.94;94.35
9822;BME280;4950;46.042;14.472;2023-11-21T04:08:10;97346.34;;;8.89;94.24
9822;BME280;4950;46.042;14.472;2023-11-21T04:10:36;97357.22;;;8.85;94.78
9822;BME280;4950;46.042;14.472;2023-11-21T04:13:04;97357.22;;;8.85;94.33
9822;BME280;4950;46.042;14.472;2023-11-21T04:15:32;97360.06;;;8.90;93.97
9822;BME280;4950;46.042;14.472;2023-11-21T04:17:58;97362.03;;;8.88;93.33
9822;BME280;4950;46.042;14.472;2023-11-21T04:20:25;97364.81;;;8.86;94.03
9822;BME280;4950;46.042;14.472;2023-11-21T04:22:52;97378.19;;;8.90;93.17
9822;BME280;4950;46.042;14.472;2023-11-21T04:25:20;97381.41;;;8.92;93.00
9822;BME280;4950;46.042;14.472;2023-11-21T04:27:48;97383.03;;;8.93;93.79
9822;BME280;4950;46.042;14.472;2023-11-21T04:30:15;97391.59;;;8.94;93.86
9822;BME280;4950;46.042;14.472;2023-11-21T04:32:42;97377.06;;;8.93;93.45
9822;BME280;4950;46.042;14.472;2023-11-21T04:35:09;97374.97;;;8.88;94.03
9822;BME280;4950;46.042;14.472;2023-11-21T04:37:35;97378.91;;;8.84;94.66
9822;BME280;4950;46.042;14.472;2023-11-21T04:40:02;97385.50;;;8.86;94.38
9822;BME280;4950;46.042;14.472;2023-11-21T04:42:34;97381.16;;;8.87;94.15
9822;BME280;4950;46.042;14.472;2023-11-21T04:45:01;97380.53;;;8.85;94.42
9822;BME280;4950;46.042;14.472;2023-11-21T04:47:30;97379.69;;;8.84;93.84
9822;BME280;4950;46.042;14.472;2023-11-21T04:49:57;97375.34;;;8.85;94.32
9822;BME280;4950;46.042;14.472;2023-11-21T04:52:24;97372.41;;;8.88;94.10
9822;BME280;4950;46.042;14.472;2023-11-21T04:54:50;97369.09;;;8.94;93.77
9822;BME280;4950;46.042;14.472;2023-11-21T04:57:19;97362.16;;;8.95;93.77
9822;BME280;4950;46.042;14.472;2023-11-21T04:59:48;97374.19;;;8.87;93.31
9822;BME280;4950;46.042;14.472;2023-11-21T05:02:15;97372.41;;;8.88;93.87
9822;BME280;4950;46.042;14.472;2023-11-21T05:04:44;97383.91;;;8.85;94.63
9822;BME280;4950;46.042;14.472;2023-11-21T05:07:11;97385.69;;;8.85;95.79
9822;BME280;4950;46.042;14.472;2023-11-21T05:09:41;97381.16;;;8.87;95.79
9822;BME280;4950;46.042;14.472;2023-11-21T05:12:09;97382.75;;;8.88;96.19
9822;BME280;4950;46.042;14.472;2023-11-21T05:14:37;97386.66;;;8.84;96.46
9822;BME280;4950;46.042;14.472;2023-11-21T05:17:05;97385.97;;;8.90;96.18
9822;BME280;4950;46.042;14.472;2023-11-21T05:19:33;97382.41;;;8.91;96.17
9822;BME280;4950;46.042;14.472;2023-11-21T05:22:00;97386.09;;;8.97;95.83
9822;BME280;4950;46.042;14.472;2023-11-21T05:24:27;97380.69;;;8.98;95.40
9822;BME280;4950;46.042;14.472;2023-11-21T05:26:54;97377.78;;;9.01;94.67
9822;BME280;4950;46.042;14.472;2023-11-21T05:29:22;97381.28;;;9.08;94.75
9822;BME280;4950;46.042;14.472;2023-11-21T05:31:48;97377.53;;;9.11;94.62
9822;BME280;4950;46.042;14.472;2023-11-21T05:34:17;97378.94;;;9.14;94.52
9822;BME280;4950;46.042;14.472;2023-11-21T05:36:43;97382.16;;;9.16;94.42
9822;BME280;4950;46.042;14.472;2023-11-21T05:39:11;97388.50;;;9.13;94.29
9822;BME280;4950;46.042;14.472;2023-11-21T05:41:37;97384.50;;;9.11;94.49
9822;BME280;4950;46.042;14.472;2023-11-21T05:44:04;97377.88;;;9.08;94.39
9822;BME280;4950;46.042;14.472;2023-11-21T05:46:31;97382.41;;;9.06;94.56
9822;BME280;4950;46.042;14.472;2023-11-21T05:48:58;97386.63;;;9.07;95.00
9822;BME280;4950;46.042;14.472;2023-11-21T05:51:26;97383.94;;;9.00;94.47
9822;BME280;4950;46.042;14.472;2023-11-21T05:53:53;97382.63;;;9.04;94.78
9822;BME280;4950;46.042;14.472;2023-11-21T05:56:19;97371.81;;;9.01;95.00
9822;BME280;4950;46.042;14.472;2023-11-21T05:58:46;97375.97;;;9.02;95.23
9822;BME280;4950;46.042;14.472;2023-11-21T06:01:13;97372.44;;;9.03;96.54
9822;BME280;4950;46.042;14.472;2023-11-21T06:03:40;97379.41;;;9.02;96.70
9822;BME280;4950;46.042;14.472;2023-11-21T06:06:07;97370.28;;;9.06;95.94
9822;BME280;4950;46.042;14.472;2023-11-21T06:08:35;97368.34;;;9.08;94.89
9822;BME280;4950;46.042;14.472;2023-11-21T06:11:02;97377.06;;;9.07;95.12
9822;BME280;4950;46.042;14.472;2023-11-21T06:13:29;97378.69;;;9.08;95.12
9822;BME280;4950;46.042;14.472;2023-11-21T06:15:56;97390.63;;;9.09;95.06
9822;BME280;4950;46.042;14.472;2023-11-21T06:18:22;97391.09;;;9.13;94.62
9822;BME280;4950;46.042;14.472;2023-11-21T06:20:49;97395.03;;;9.09;94.96
9822;BME280;4950;46.042;14.472;2023-11-21T06:23:17;97383.25;;;9.06;95.17
9822;BME280;4950;46.042;14.472;2023-11-21T06:25:45;97396.00;;;9.08;94.59
9822;BME280;4950;46.042;14.472;2023-11-21T06:28:12;97391.97;;;9.05;94.71
9822;BME280;4950;46.042;14.472;2023-11-21T06:30:42;97393.94;;;9.03;94.70
9822;BME280;4950;46.042;14.472;2023-11-21T06:33:09;97391.34;;;9.03;94.92
9822;BME280;4950;46.042;14.472;2023-11-21T06:35:36;97394.22;;;9.08;94.95
9822;BME280;4950;46.042;14.472;2023-11-21T06:38:03;97394.84;;;9.11;95.44
9822;BME280;4950;46.042;14.472;2023-11-21T06:40:30;97389.13;;;9.15;95.23
9822;BME280;4950;46.042;14.472;2023-11-21T06:43:00;97387.72;;;9.13;95.00
9822;BME280;4950;46.042;14.472;2023-11-21T06:45:27;97397.91;;;9.14;95.44
9822;BME280;4950;46.042;14.472;2023-11-21T06:47:54;97400.28;;;9.16;95.53
9822;BME280;4950;46.042;14.472;2023-11-21T06:50:21;97414.84;;;9.17;95.41
9822;BME280;4950;46.042;14.472;2023-11-21T06:52:48;97415.81;;;9.16;95.17
9822;BME280;4950;46.042;14.472;2023-11-21T06:55:15;97419.03;;;9.18;95.05
9822;BME280;4950;46.042;14.472;2023-11-21T06:57:42;97430.72;;;9.14;95.10
9822;BME280;4950;46.042;14.472;2023-11-21T07:00:12;97421.09;;;9.07;95.63
9822;BME280;4950;46.042;14.472;2023-11-21T07:02:40;97419.94;;;9.10;95.03
9822;BME280;4950;46.042;14.472;2023-11-21T07:05:07;97430.81;;;9.05;95.77
9822;BME280;4950;46.042;14.472;2023-11-21T07:07:33;97428.84;;;9.07;96.05
9822;BME280;4950;46.042;14.472;2023-11-21T07:10:01;97426.44;;;9.06;95.37
9822;BME280;4950;46.042;14.472;2023-11-21T07:12:29;97429.38;;;9.03;95.68
9822;BME280;4950;46.042;14.472;2023-11-21T07:14:56;97428.28;;;8.97;96.19
9822;BME280;4950;46.042;14.472;2023-11-21T07:17:24;97428.06;;;9.07;95.86
9822;BME280;4950;46.042;14.472;2023-11-21T07:19:51;97425.75;;;9.12;95.34
9822;BME280;4950;46.042;14.472;2023-11-21T07:22:18;97425.13;;;9.10;95.52
9822;BME280;4950;46.042;14.472;2023-11-21T07:24:48;97422.16;;;9.13;95.31
9822;BME280;4950;46.042;14.472;2023-11-21T07:27:15;97430.56;;;9.15;95.89
9822;BME280;4950;46.042;14.472;2023-11-21T07:29:42;97430.41;;;9.17;96.23
9822;BME280;4950;46.042;14.472;2023-11-21T07:32:08;97433.78;;;9.17;95.96
9822;BME280;4950;46.042;14.472;2023-11-21T07:34:37;97431.56;;;9.14;96.48
9822;BME280;4950;46.042;14.472;2023-11-21T07:37:03;97430.72;;;9.14;96.33
9822;BME280;4950;46.042;14.472;2023-11-21T07:39:30;97432.81;;;9.18;96.86
9822;BME280;4950;46.042;14.472;2023-11-21T07:41:57;97431.03;;;9.19;96.85
9822;BME280;4950;46.042;14.472;2023-11-21T07:44:23;97425.84;;;9.19;96.92
9822;BME280;4950;46.042;14.472;2023-11-21T07:46:51;97429.41;;;9.18;96.81
9822;BME280;4950;46.042;14.472;2023-11-21T07:49:22;97434.56;;;9.18;97.43
9822;BME280;4950;46.042;14.472;2023-11-21T07:51:50;97438.63;;;9.20;97.30
9822;BME280;4950;46.042;14.472;2023-11-21T07:54:17;97444.94;;;9.18;97.20
9822;BME280;4950;46.042;14.472;2023-11-21T07:56:44;97442.28;;;9.26;97.06
9822;BME280;4950;46.042;14.472;2023-11-21T07:59:11;97451.81;;;9.25;97.37
9822;BME280;4950;46.042;14.472;2023-11-21T08:01:37;97458.78;;;9.25;98.15
9822;BME280;4950;46.042;14.472;2023-11-21T08:04:05;97457.88;;;9.18;97.99
9822;BME280;4950;46.042;14.472;2023-11-21T08:06:33;97461.94;;;9.20;98.33
9822;BME280;4950;46.042;14.472;2023-11-21T08:09:02;97461.06;;;9.28;97.73
9822;BME280;4950;46.042;14.472;2023-11-21T08:11:29;97465.22;;;9.29;97.55
9822;BME280;4950;46.042;14.472;2023-11-21T08:13:57;97468.34;;;9.24;97.80
9822;BME280;4950;46.042;14.472;2023-11-21T08:16:25;97473.53;;;9.24;98.28
9822;BME280;4950;46.042;14.472;2023-11-21T08:18:52;97471.66;;;9.18;97.40
9822;BME280;4950;46.042;14.472;2023-11-21T08:21:19;97468.69;;;9.06;98.57
9822;BME280;4950;46.042;14.472;2023-11-21T08:23:46;97469.41;;;9.15;98.15
9822;BME280;4950;46.042;14.472;2023-11-21T08:26:20;97459.34;;;9.20;97.64
9822;BME280;4950;46.042;14.472;2023-11-21T08:28:47;97459.16;;;9.22;97.37
9822;BME280;4950;46.042;14.472;2023-11-21T08:31:14;97458.00;;;9.24;97.85
9822;BME280;4950;46.042;14.472;2023-11-21T08:33:41;97465.41;;;9.27;97.36
9822;BME280;4950;46.042;14.472;2023-11-21T08:36:08;97461.06;;;9.28;98.19
9822;BME280;4950;46.042;14.472;2023-11-21T08:38:36;97463.72;;;9.35;97.28
9822;BME280;4950;46.042;14.472;2023-11-21T08:41:05;97469.38;;;9.38;96.93
9822;BME280;4950;46.042;14.472;2023-11-21T08:43:34;97470.06;;;9.32;97.67
9822;BME280;4950;46.042;14.472;2023-11-21T08:46:01;97470.25;;;9.31;97.95
9822;BME280;4950;46.042;14.472;2023-11-21T08:48:28;97470.53;;;9.36;98.22
9822;BME280;4950;46.042;14.472;2023-11-21T08:50:55;97475.50;;;9.37;98.04
9822;BME280;4950;46.042;14.472;2023-11-21T08:53:22;97485.00;;;9.45;97.70
9822;BME280;4950;46.042;14.472;2023-11-21T08:55:48;97485.00;;;9.45;97.09
9822;BME280;4950;46.042;14.472;2023-11-21T08:58:15;97484.66;;;9.48;96.94
9822;BME280;4950;46.042;14.472;2023-11-21T09:00:44;97485.44;;;9.48;96.97
9822;BME280;4950;46.042;14.472;2023-11-21T09:03:11;97495.00;;;9.48;97.31
9822;BME280;4950;46.042;14.472;2023-11-21T09:05:38;97487.88;;;9.50;97.78
9822;BME280;4950;46.042;14.472;2023-11-21T09:08:05;97495.47;;;9.52;97.56
9822;BME280;4950;46.042;14.472;2023-11-21T09:10:33;97498.69;;;9.54;97.59
9822;BME280;4950;46.042;14.472;2023-11-21T09:13:01;97492.34;;;9.56;97.77
9822;BME280;4950;46.042;14.472;2023-11-21T09:15:28;97497.53;;;9.56;97.37
9822;BME280;4950;46.042;14.472;2023-11-21T09:17:56;97497.91;;;9.53;97.81
9822;BME280;4950;46.042;14.472;2023-11-21T09:20:23;97492.88;;;9.52;98.13
9822;BME280;4950;46.042;14.472;2023-11-21T09:22:50;97488.16;;;9.55;98.56
9822;BME280;4950;46.042;14.472;2023-11-21T09:25:16;97484.41;;;9.58;98.79
9822;BME280;4950;46.042;14.472;2023-11-21T09:27:44;97484.41;;;9.58;98.68
9822;BME280;4950;46.042;14.472;2023-11-21T09:30:12;97487.31;;;9.55;99.42
9822;BME280;4950;46.042;14.472;2023-11-21T09:32:39;97485.38;;;9.57;99.34
9822;BME280;4950;46.042;14.472;2023-11-21T09:35:09;97488.88;;;9.64;99.72
9822;BME280;4950;46.042;14.472;2023-11-21T09:37:35;97489.94;;;9.69;99.51
9822;BME280;4950;46.042;14.472;2023-11-21T09:40:03;97482.88;;;9.63;99.01
9822;BME280;4950;46.042;14.472;2023-11-21T09:42:36;97487.00;;;9.58;99.77
9822;BME280;4950;46.042;14.472;2023-11-21T09:45:11;97486.19;;;9.57;100.00
9822;BME280;4950;46.042;14.472;2023-11-21T09:47:42;97483.69;;;9.64;100.00
9822;BME280;4950;46.042;14.472;2023-11-21T09:50:11;97482.25;;;9.61;100.00
9822;BME280;4950;46.042;14.472;2023-11-21T09:52:47;97489.66;;;9.64;100.00
9822;BME280;4950;46.042;14.472;2023-11-21T09:55:16;97483.84;;;9.62;100.00
9822;BME280;4950;46.042;14.472;2023-11-21T09:57:47;97487.63;;;9.60;100.00
9822;BME280;4950;46.042;14.472;2023-11-21T10:00:16;97479.13;;;9.66;100.00
9822;BME280;4950;46.042;14.472;2023-11-21T10:02:45;97486.56;;;9.69;100.00
9822;BME280;4950;46.042;14.472;2023-11-21T10:05:14;97484.84;;;9.76;100.00
9822;BME280;4950;46.042;14.472;2023-11-21T10:07:42;97478.69;;;9.77;100.00
9822;BME280;4950;46.042;14.472;2023-11-21T10:10:10;97481.56;;;9.82;100.00
9822;BME280;4950;46.042;14.472;2023-11-21T10:12:37;97479.75;;;9.83;100.00
9822;BME280;4950;46.042;14.472;2023-11-21T10:15:07;97480.72;;;9.82;99.13
9822;BME280;4950;46.042;14.472;2023-11-21T10:17:36;97473.22;;;9.72;99.32
9822;BME280;4950;46.042;14.472;2023-11-21T10:20:10;97470.72;;;9.64;99.72
9822;BME280;4950;46.042;14.472;2023-11-21T10:22:40;97471.81;;;9.69;99.29
9822;BME280;4950;46.042;14.472;2023-11-21T10:25:08;97470.47;;;9.74;99.32
9822;BME280;4950;46.042;14.472;2023-11-21T10:27:34;97471.72;;;9.78;98.84
9822;BME280;4950;46.042;14.472;2023-11-21T10:30:01;97465.00;;;9.83;98.79
9822;BME280;4950;46.042;14.472;2023-11-21T10:32:29;97467.88;;;9.88;98.27
9822;BME280;4950;46.042;14.472;2023-11-21T10:34:58;97465.53;;;9.94;97.53
9822;BME280;4950;46.042;14.472;2023-11-21T10:37:26;97464.03;;;9.84;98.16
9822;BME280;4950;46.042;14.472;2023-11-21T10:39:58;97462.69;;;9.88;98.68
9822;BME280;4950;46.042;14.472;2023-11-21T10:42:25;97453.38;;;9.94;98.77
9822;BME280;4950;46.042;14.472;2023-11-21T10:44:52;97453.28;;;10.02;99.30
9822;BME280;4950;46.042;14.472;2023-11-21T10:47:19;97456.13;;;10.07;99.17
9822;BME280;4950;46.042;14.472;2023-11-21T10:49:48;97448.34;;;10.07;98.66
9822;BME280;4950;46.042;14.472;2023-11-21T10:52:15;97460.97;;;10.11;98.50
9822;BME280;4950;46.042;14.472;2023-11-21T10:54:45;97460.78;;;10.12;98.11
9822;BME280;4950;46.042;14.472;2023-11-21T10:57:16;97459.16;;;10.11;98.60
9822;BME280;4950;46.042;14.472;2023-11-21T10:59:46;97462.75;;;9.95;98.01
9822;BME280;4950;46.042;14.472;2023-11-21T11:02:21;97470.38;;;9.97;98.02
9822;BME280;4950;46.042;14.472;2023-11-21T11:04:48;97473.50;;;9.77;98.01
9822;BME280;4950;46.042;14.472;2023-11-21T11:07:16;97478.34;;;9.80;97.91
9822;BME280;4950;46.042;14.472;2023-11-21T11:09:43;97467.25;;;9.72;98.31
9822;BME280;4950;46.042;14.472;2023-11-21T11:12:14;97468.94;;;9.64;99.69
9822;BME280;4950;46.042;14.472;2023-11-21T11:14:42;97469.94;;;9.63;99.17
9822;BME280;4950;46.042;14.472;2023-11-21T11:17:10;97466.63;;;9.69;99.21
9822;BME280;4950;46.042;14.472;2023-11-21T11:19:37;97460.53;;;9.77;99.09
9822;BME280;4950;46.042;14.472;2023-11-21T11:22:14;97450.44;;;9.82;99.17
9822;BME280;4950;46.042;14.472;2023-11-21T11:25:00;97451.59;;;9.95;98.41
9822;BME280;4950;46.042;14.472;2023-11-21T11:27:38;97443.03;;;9.94;98.80
9822;BME280;4950;46.042;14.472;2023-11-21T11:30:15;97441.28;;;10.01;98.48
9822;BME280;4950;46.042;14.472;2023-11-21T11:32:52;97440.94;;;10.04;98.12
9822;BME280;4950;46.042;14.472;2023-11-21T11:35:26;97451.75;;;10.08;98.29
9822;BME280;4950;46.042;14.472;2023-11-21T11:37:56;97456.94;;;10.08;97.95
9822;BME280;4950;46.042;14.472;2023-11-21T11:40:26;97449.22;;;10.15;97.28
9822;BME280;4950;46.042;14.472;2023-11-21T11:43:06;97453.25;;;10.17;96.84
9822;BME280;4950;46.042;14.472;2023-11-21T11:45:34;97447.69;;;10.20;97.18
9822;BME280;4950;46.042;14.472;2023-11-21T11:48:06;97450.59;;;10.11;96.46
9822;BME280;4950;46.042;14.472;2023-11-21T11:50:33;97445.66;;;10.16;97.52
9822;BME280;4950;46.042;14.472;2023-11-21T11:53:13;97435.56;;;10.06;97.20
9822;BME280;4950;46.042;14.472;2023-11-21T11:55:39;97435.13;;;10.02;97.49
9822;BME280;4950;46.042;14.472;2023-11-21T11:58:08;97432.09;;;9.99;97.68
9822;BME280;4950;46.042;14.472;2023-11-21T12:00:35;97421.09;;;9.82;98.50
9822;BME280;4950;46.042;14.472;2023-11-21T12:03:06;97422.09;;;9.81;98.43
9822;BME280;4950;46.042;14.472;2023-11-21T12:05:34;97417.44;;;9.76;98.71
9822;BME280;4950;46.042;14.472;2023-11-21T12:08:05;97428.53;;;9.70;98.65
9822;BME280;4950;46.042;14.472;2023-11-21T12:10:33;97417.38;;;9.69;99.14
9822;BME280;4950;46.042;14.472;2023-11-21T12:13:02;97423.81;;;9.74;98.46
9822;BME280;4950;46.042;14.472;2023-11-21T12:15:32;97425.31;;;9.68;98.27
9822;BME280;4950;46.042;14.472;2023-11-21T12:17:59;97415.69;;;9.62;98.88
9822;BME280;4950;46.042;14.472;2023-11-21T12:20:26;97422.31;;;9.49;99.01
9822;BME280;4950;46.042;14.472;2023-11-21T12:22:55;97421.06;;;9.45;99.78
9822;BME280;4950;46.042;14.472;2023-11-21T12:25:24;97415.75;;;9.39;100.00
9822;BME280;4950;46.042;14.472;2023-11-21T12:27:54;97411.84;;;9.28;99.87
9822;BME280;4950;46.042;14.472;2023-11-21T12:30:22;97415.81;;;9.16;100.00
9822;BME280;4950;46.042;14.472;2023-11-21T12:32:52;97411.94;;;9.20;100.00
9822;BME280;4950;46.042;14.472;2023-11-21T12:35:23;97407.16;;;9.23;100.00
9822;BME280;4950;46.042;14.472;2023-11-21T12:37:51;97410.38;;;9.25;100.00
9822;BME280;4950;46.042;14.472;2023-11-21T12:40:19;97401.19;;;9.23;100.00
9822;BME280;4950;46.042;14.472;2023-11-21T12:42:49;97410.47;;;9.17;100.00
9822;BME280;4950;46.042;14.472;2023-11-21T12:45:21;97395.56;;;9.19;100.00
9822;BME280;4950;46.042;14.472;2023-11-21T12:47:49;97401.44;;;9.13;100.00
9822;BME280;4950;46.042;14.472;2023-11-21T12:50:20;97412.97;;;9.11;100.00
9822;BME280;4950;46.042;14.472;2023-11-21T12:52:49;97408.50;;;9.04;100.00
9822;BME280;4950;46.042;14.472;2023-11-21T12:55:20;97403.03;;;8.99;100.00
9822;BME280;4950;46.042;14.472;2023-11-21T12:57:48;97402.34;;;9.05;100.00
9822;BME280;4950;46.042;14.472;2023-11-21T13:00:18;97396.72;;;9.17;100.00
9822;BME280;4950;46.042;14.472;2023-11-21T13:02:53;97396.31;;;9.28;100.00
9822;BME280;4950;46.042;14.472;2023-11-21T13:05:30;97390.84;;;9.23;100.00
9822;BME280;4950;46.042;14.472;2023-11-21T13:07:58;97388.69;;;9.26;100.00
9822;BME280;4950;46.042;14.472;2023-11-21T13:10:29;97394.31;;;9.15;100.00
9822;BME280;4950;46.042;14.472;2023-11-21T13:12:57;97389.25;;;9.22;100.00
9822;BME280;4950;46.042;14.472;2023-11-21T13:15:25;97389.78;;;9.32;100.00
9822;BME280;4950;46.042;14.472;2023-11-21T13:17:52;97388.34;;;9.44;100.00
9822;BME280;4950;46.042;14.472;2023-11-21T13:20:21;97390.84;;;9.53;100.00
9822;BME280;4950;46.042;14.472;2023-11-21T13:22:52;97395.75;;;9.62;100.00
9822;BME280;4950;46.042;14.472;2023-11-21T13:25:21;97394.22;;;9.68;99.92